Briefing drone pour Olemps

Rechercher une autre localisation

Conditions de vol :


Nous sommes le : Dimanche 14 avril 2024
Il est 02:01 UTC (04:01 LT)

Lever de soleil : 04:39 UTC (06:39 LT)
Coucher de soleil : 18:59 UTC (20:59 LT)

Météo

L'essentiel des conditions de vol

VIGILANCE MÉTÉO FRANCE - Aveyron (12)
Pas de vigilances particulieres
CARTE TEMSI
CARTES DES FRONTS
METAR de LFCR
LFCR 140130Z AUTO 12002KT CAVOK 10/07 Q1026 NOSIG

Date d'émission: 14/04/2024
Heure d'émission: 01:30 UTC
Vent: 120° pour 2 KT (4 km/h)
Visibilité horizontale: > 10 km
Plafond : Plafond et visibilité OK (CAVOK)
Température: 10 °C
Point de rosée: 7 °C
Humidité: 82%
Pression (QNH): 1026 hPa
Conditions: Pas de changement dans les 2 heures (NOSIG)
TAF de LFCR
LFCR 131700Z 1318/1418 VRB03KT CAVOK

Conditions prévues :

Heure d'émission : Bulletin éffectué le 13 à 18:00 UTC
Prévision : Valide du 13 a 18:00 UTC au 14 a 18:00 UTC
Vent : Variable pour 3 KT (6 km/h)
Visibilité : > 10 km
WEBCAM POUR OLEMPS

Réglementation

Voler en sécurité

CARTES AERONAUTIQUE 1/500.000
CARTE AZBA (Reseau basse altitude)
CARTES VAC (LFCR)
SUP AIP




Chargement des AIP...
NOTAM (OLEMPS + Terrain à proximité / FIR )




Chargement des NOTAMS...
CONTACT PREFECTURE 12
Aveyron (12) : [email protected]


Avertissement : Les données mises à disposition sont indicatives. Oxygène Drone ne pourra être tenu responsable de dégâts causés aux biens et aux personnes.